sensor_id;sensor_type;location;lat;lon;timestamp;P1;durP1;ratioP1;P2;durP2;ratioP2
13816;SDS011;6979;52.116;5.286;2023-02-02T00:01:39;13.53;;;3.83;;
13816;SDS011;6979;52.116;5.286;2023-02-02T00:04:07;11.07;;;4.27;;
13816;SDS011;6979;52.116;5.286;2023-02-02T00:06:39;9.30;;;3.30;;
13816;SDS011;6979;52.116;5.286;2023-02-02T00:09:06;6.90;;;3.50;;
13816;SDS011;6979;52.116;5.286;2023-02-02T00:11:35;7.13;;;2.80;;
13816;SDS011;6979;52.116;5.286;2023-02-02T00:14:02;7.80;;;3.13;;
13816;SDS011;6979;52.116;5.286;2023-02-02T00:16:40;6.70;;;2.67;;
13816;SDS011;6979;52.116;5.286;2023-02-02T00:19:09;9.07;;;2.83;;
13816;SDS011;6979;52.116;5.286;2023-02-02T00:21:38;5.53;;;3.07;;
13816;SDS011;6979;52.116;5.286;2023-02-02T00:24:05;9.23;;;3.03;;
13816;SDS011;6979;52.116;5.286;2023-02-02T00:26:32;10.30;;;3.40;;
13816;SDS011;6979;52.116;5.286;2023-02-02T00:28:59;8.17;;;3.63;;
13816;SDS011;6979;52.116;5.286;2023-02-02T00:31:26;7.60;;;3.07;;
13816;SDS011;6979;52.116;5.286;2023-02-02T00:33:55;5.67;;;3.43;;
13816;SDS011;6979;52.116;5.286;2023-02-02T00:36:22;5.13;;;2.63;;
13816;SDS011;6979;52.116;5.286;2023-02-02T00:38:49;6.17;;;2.60;;
13816;SDS011;6979;52.116;5.286;2023-02-02T00:41:17;9.30;;;3.67;;
13816;SDS011;6979;52.116;5.286;2023-02-02T00:43:44;10.50;;;5.20;;
13816;SDS011;6979;52.116;5.286;2023-02-02T00:46:31;8.43;;;3.77;;
13816;SDS011;6979;52.116;5.286;2023-02-02T00:48:59;12.50;;;3.53;;
13816;SDS011;6979;52.116;5.286;2023-02-02T00:51:26;10.00;;;3.20;;
13816;SDS011;6979;52.116;5.286;2023-02-02T00:53:52;7.67;;;3.67;;
13816;SDS011;6979;52.116;5.286;2023-02-02T00:56:19;7.67;;;2.73;;
13816;SDS011;6979;52.116;5.286;2023-02-02T00:58:46;8.23;;;3.30;;
13816;SDS011;6979;52.116;5.286;2023-02-02T01:01:16;11.30;;;3.03;;
13816;SDS011;6979;52.116;5.286;2023-02-02T01:03:45;8.70;;;2.70;;
13816;SDS011;6979;52.116;5.286;2023-02-02T01:06:13;6.53;;;2.77;;
13816;SDS011;6979;52.116;5.286;2023-02-02T01:08:40;3.57;;;1.97;;
13816;SDS011;6979;52.116;5.286;2023-02-02T01:11:07;5.23;;;2.23;;
13816;SDS011;6979;52.116;5.286;2023-02-02T01:13:34;7.50;;;2.30;;
13816;SDS011;6979;52.116;5.286;2023-02-02T01:16:01;6.43;;;2.87;;
13816;SDS011;6979;52.116;5.286;2023-02-02T01:18:29;5.33;;;2.43;;
13816;SDS011;6979;52.116;5.286;2023-02-02T01:20:56;4.90;;;2.93;;
13816;SDS011;6979;52.116;5.286;2023-02-02T01:23:25;4.67;;;1.83;;
13816;SDS011;6979;52.116;5.286;2023-02-02T01:25:53;3.47;;;1.70;;
13816;SDS011;6979;52.116;5.286;2023-02-02T01:28:20;5.87;;;2.30;;
13816;SDS011;6979;52.116;5.286;2023-02-02T01:30:47;6.73;;;2.57;;
13816;SDS011;6979;52.116;5.286;2023-02-02T01:33:14;4.87;;;2.33;;
13816;SDS011;6979;52.116;5.286;2023-02-02T01:35:46;4.80;;;2.00;;
13816;SDS011;6979;52.116;5.286;2023-02-02T01:38:14;3.30;;;1.67;;
13816;SDS011;6979;52.116;5.286;2023-02-02T01:40:55;3.03;;;1.40;;
13816;SDS011;6979;52.116;5.286;2023-02-02T01:43:23;3.07;;;1.67;;
13816;SDS011;6979;52.116;5.286;2023-02-02T01:45:52;2.60;;;1.13;;
13816;SDS011;6979;52.116;5.286;2023-02-02T01:48:22;2.27;;;1.20;;
13816;SDS011;6979;52.116;5.286;2023-02-02T01:50:53;1.70;;;1.30;;
13816;SDS011;6979;52.116;5.286;2023-02-02T01:53:24;3.07;;;1.40;;
13816;SDS011;6979;52.116;5.286;2023-02-02T01:55:51;3.33;;;1.40;;
13816;SDS011;6979;52.116;5.286;2023-02-02T01:58:20;2.27;;;1.20;;
13816;SDS011;6979;52.116;5.286;2023-02-02T02:00:49;3.97;;;2.50;;
13816;SDS011;6979;52.116;5.286;2023-02-02T02:03:18;2.30;;;1.20;;
13816;SDS011;6979;52.116;5.286;2023-02-02T02:05:49;3.03;;;1.20;;
13816;SDS011;6979;52.116;5.286;2023-02-02T02:08:20;2.43;;;1.33;;
13816;SDS011;6979;52.116;5.286;2023-02-02T02:10:51;3.07;;;1.67;;
13816;SDS011;6979;52.116;5.286;2023-02-02T02:13:20;3.23;;;1.90;;
13816;SDS011;6979;52.116;5.286;2023-02-02T02:16:12;3.40;;;2.27;;
13816;SDS011;6979;52.116;5.286;2023-02-02T02:18:44;4.00;;;1.77;;
13816;SDS011;6979;52.116;5.286;2023-02-02T02:24:37;3.27;;;1.60;;
13816;SDS011;6979;52.116;5.286;2023-02-02T02:28:06;1.97;;;1.60;;
13816;SDS011;6979;52.116;5.286;2023-02-02T02:31:26;4.10;;;1.63;;
13816;SDS011;6979;52.116;5.286;2023-02-02T02:34:13;6.97;;;2.37;;
13816;SDS011;6979;52.116;5.286;2023-02-02T02:36:44;7.03;;;2.40;;
13816;SDS011;6979;52.116;5.286;2023-02-02T02:39:17;9.63;;;3.87;;
13816;SDS011;6979;52.116;5.286;2023-02-02T02:41:51;7.20;;;3.10;;
13816;SDS011;6979;52.116;5.286;2023-02-02T02:44:23;8.10;;;2.80;;
13816;SDS011;6979;52.116;5.286;2023-02-02T02:46:53;15.17;;;3.60;;
13816;SDS011;6979;52.116;5.286;2023-02-02T02:49:22;13.33;;;3.70;;
13816;SDS011;6979;52.116;5.286;2023-02-02T02:51:49;13.67;;;4.30;;
13816;SDS011;6979;52.116;5.286;2023-02-02T02:54:23;5.53;;;3.80;;
13816;SDS011;6979;52.116;5.286;2023-02-02T02:56:56;8.10;;;3.67;;
13816;SDS011;6979;52.116;5.286;2023-02-02T02:59:36;7.10;;;3.30;;
13816;SDS011;6979;52.116;5.286;2023-02-02T03:02:16;12.00;;;3.77;;
13816;SDS011;6979;52.116;5.286;2023-02-02T03:04:59;10.70;;;3.13;;
13816;SDS011;6979;52.116;5.286;2023-02-02T03:07:34;10.87;;;3.93;;
13816;SDS011;6979;52.116;5.286;2023-02-02T03:10:06;7.80;;;3.43;;
13816;SDS011;6979;52.116;5.286;2023-02-02T03:12:42;11.07;;;3.40;;
13816;SDS011;6979;52.116;5.286;2023-02-02T03:15:10;5.50;;;3.33;;
13816;SDS011;6979;52.116;5.286;2023-02-02T03:17:37;11.30;;;3.93;;
13816;SDS011;6979;52.116;5.286;2023-02-02T03:20:07;8.53;;;3.17;;
13816;SDS011;6979;52.116;5.286;2023-02-02T03:22:34;8.40;;;3.60;;
13816;SDS011;6979;52.116;5.286;2023-02-02T03:25:01;11.70;;;3.50;;
13816;SDS011;6979;52.116;5.286;2023-02-02T03:27:28;7.10;;;3.30;;
13816;SDS011;6979;52.116;5.286;2023-02-02T03:29:55;6.10;;;3.20;;
13816;SDS011;6979;52.116;5.286;2023-02-02T03:32:23;11.50;;;3.53;;
13816;SDS011;6979;52.116;5.286;2023-02-02T03:34:51;7.80;;;3.67;;
13816;SDS011;6979;52.116;5.286;2023-02-02T03:37:19;10.57;;;3.77;;
13816;SDS011;6979;52.116;5.286;2023-02-02T03:39:46;9.83;;;3.30;;
13816;SDS011;6979;52.116;5.286;2023-02-02T03:42:13;10.37;;;3.97;;
13816;SDS011;6979;52.116;5.286;2023-02-02T03:44:39;5.70;;;3.13;;
13816;SDS011;6979;52.116;5.286;2023-02-02T03:47:09;11.53;;;3.97;;
13816;SDS011;6979;52.116;5.286;2023-02-02T03:49:36;12.40;;;3.57;;
13816;SDS011;6979;52.116;5.286;2023-02-02T03:52:03;11.10;;;3.97;;
13816;SDS011;6979;52.116;5.286;2023-02-02T03:54:31;8.80;;;3.33;;
13816;SDS011;6979;52.116;5.286;2023-02-02T03:56:58;9.63;;;3.40;;
13816;SDS011;6979;52.116;5.286;2023-02-02T03:59:25;8.83;;;4.03;;
13816;SDS011;6979;52.116;5.286;2023-02-02T04:01:52;9.10;;;3.20;;
13816;SDS011;6979;52.116;5.286;2023-02-02T04:04:19;8.90;;;3.60;;
13816;SDS011;6979;52.116;5.286;2023-02-02T04:06:46;16.10;;;3.80;;
13816;SDS011;6979;52.116;5.286;2023-02-02T04:09:13;7.00;;;3.30;;
13816;SDS011;6979;52.116;5.286;2023-02-02T04:11:45;13.43;;;4.90;;
13816;SDS011;6979;52.116;5.286;2023-02-02T04:14:12;7.73;;;3.50;;
13816;SDS011;6979;52.116;5.286;2023-02-02T04:16:39;6.27;;;3.20;;
13816;SDS011;6979;52.116;5.286;2023-02-02T04:19:06;9.47;;;3.50;;
13816;SDS011;6979;52.116;5.286;2023-02-02T04:21:33;13.23;;;3.63;;
13816;SDS011;6979;52.116;5.286;2023-02-02T04:24:00;9.30;;;3.60;;
13816;SDS011;6979;52.116;5.286;2023-02-02T04:26:27;6.17;;;3.20;;
13816;SDS011;6979;52.116;5.286;2023-02-02T04:28:55;9.83;;;4.20;;
13816;SDS011;6979;52.116;5.286;2023-02-02T04:31:22;7.47;;;2.90;;
13816;SDS011;6979;52.116;5.286;2023-02-02T04:33:49;12.63;;;3.27;;
13816;SDS011;6979;52.116;5.286;2023-02-02T04:36:16;8.93;;;3.87;;
13816;SDS011;6979;52.116;5.286;2023-02-02T04:38:43;13.10;;;3.70;;
13816;SDS011;6979;52.116;5.286;2023-02-02T04:41:14;8.60;;;3.43;;
13816;SDS011;6979;52.116;5.286;2023-02-02T04:43:43;10.43;;;3.53;;
13816;SDS011;6979;52.116;5.286;2023-02-02T04:46:11;9.00;;;2.83;;
13816;SDS011;6979;52.116;5.286;2023-02-02T04:48:39;9.53;;;3.37;;
13816;SDS011;6979;52.116;5.286;2023-02-02T04:51:07;10.70;;;3.10;;
13816;SDS011;6979;52.116;5.286;2023-02-02T04:53:35;9.13;;;3.57;;
13816;SDS011;6979;52.116;5.286;2023-02-02T04:56:06;12.80;;;2.87;;
13816;SDS011;6979;52.116;5.286;2023-02-02T04:58:33;10.40;;;3.00;;
13816;SDS011;6979;52.116;5.286;2023-02-02T05:01:00;5.23;;;2.67;;
13816;SDS011;6979;52.116;5.286;2023-02-02T05:03:34;7.23;;;3.30;;
13816;SDS011;6979;52.116;5.286;2023-02-02T05:06:01;6.77;;;3.23;;
13816;SDS011;6979;52.116;5.286;2023-02-02T05:08:31;8.80;;;3.23;;
13816;SDS011;6979;52.116;5.286;2023-02-02T05:10:59;6.77;;;2.80;;
13816;SDS011;6979;52.116;5.286;2023-02-02T05:13:25;8.27;;;3.50;;
13816;SDS011;6979;52.116;5.286;2023-02-02T05:15:52;6.63;;;2.70;;
13816;SDS011;6979;52.116;5.286;2023-02-02T05:18:20;9.87;;;3.77;;
13816;SDS011;6979;52.116;5.286;2023-02-02T05:20:50;8.63;;;3.40;;
13816;SDS011;6979;52.116;5.286;2023-02-02T05:23:19;9.90;;;3.33;;
13816;SDS011;6979;52.116;5.286;2023-02-02T05:25:50;10.27;;;3.43;;
13816;SDS011;6979;52.116;5.286;2023-02-02T05:28:17;7.17;;;2.63;;
13816;SDS011;6979;52.116;5.286;2023-02-02T05:30:44;12.67;;;3.50;;
13816;SDS011;6979;52.116;5.286;2023-02-02T05:33:10;8.20;;;3.43;;
13816;SDS011;6979;52.116;5.286;2023-02-02T05:35:37;12.83;;;3.80;;
13816;SDS011;6979;52.116;5.286;2023-02-02T05:38:06;8.57;;;3.10;;
13816;SDS011;6979;52.116;5.286;2023-02-02T05:40:32;7.97;;;3.10;;
13816;SDS011;6979;52.116;5.286;2023-02-02T05:42:59;9.83;;;2.90;;
13816;SDS011;6979;52.116;5.286;2023-02-02T05:45:26;8.60;;;3.13;;
13816;SDS011;6979;52.116;5.286;2023-02-02T05:47:53;8.30;;;2.90;;
13816;SDS011;6979;52.116;5.286;2023-02-02T05:50:20;10.30;;;3.80;;
13816;SDS011;6979;52.116;5.286;2023-02-02T05:52:59;11.10;;;3.53;;
13816;SDS011;6979;52.116;5.286;2023-02-02T05:55:27;13.63;;;3.20;;
13816;SDS011;6979;52.116;5.286;2023-02-02T05:57:54;9.33;;;3.63;;
13816;SDS011;6979;52.116;5.286;2023-02-02T06:00:21;5.50;;;2.63;;
13816;SDS011;6979;52.116;5.286;2023-02-02T06:02:48;8.90;;;3.67;;
13816;SDS011;6979;52.116;5.286;2023-02-02T06:05:15;8.90;;;3.43;;
13816;SDS011;6979;52.116;5.286;2023-02-02T06:07:42;9.40;;;3.23;;
13816;SDS011;6979;52.116;5.286;2023-02-02T06:10:09;10.83;;;3.33;;
13816;SDS011;6979;52.116;5.286;2023-02-02T06:12:37;5.87;;;2.40;;
13816;SDS011;6979;52.116;5.286;2023-02-02T06:15:05;6.87;;;2.60;;
13816;SDS011;6979;52.116;5.286;2023-02-02T06:17:32;5.60;;;2.87;;
13816;SDS011;6979;52.116;5.286;2023-02-02T06:19:59;5.80;;;2.70;;
13816;SDS011;6979;52.116;5.286;2023-02-02T06:22:26;7.13;;;2.50;;
13816;SDS011;6979;52.116;5.286;2023-02-02T06:24:54;7.37;;;2.80;;
13816;SDS011;6979;52.116;5.286;2023-02-02T06:27:24;7.07;;;2.63;;
13816;SDS011;6979;52.116;5.286;2023-02-02T06:29:52;8.83;;;3.60;;
13816;SDS011;6979;52.116;5.286;2023-02-02T06:32:19;7.17;;;3.00;;
13816;SDS011;6979;52.116;5.286;2023-02-02T06:34:46;8.50;;;3.00;;
13816;SDS011;6979;52.116;5.286;2023-02-02T06:37:13;10.53;;;2.70;;
13816;SDS011;6979;52.116;5.286;2023-02-02T06:39:39;4.87;;;2.03;;
13816;SDS011;6979;52.116;5.286;2023-02-02T06:42:06;4.93;;;2.30;;
13816;SDS011;6979;52.116;5.286;2023-02-02T06:44:33;7.10;;;2.87;;
13816;SDS011;6979;52.116;5.286;2023-02-02T06:47:01;6.80;;;2.73;;
13816;SDS011;6979;52.116;5.286;2023-02-02T06:49:28;7.53;;;2.90;;
13816;SDS011;6979;52.116;5.286;2023-02-02T06:51:55;7.70;;;2.93;;
13816;SDS011;6979;52.116;5.286;2023-02-02T06:54:22;9.70;;;3.20;;
13816;SDS011;6979;52.116;5.286;2023-02-02T06:56:49;12.63;;;3.63;;
13816;SDS011;6979;52.116;5.286;2023-02-02T06:59:16;7.70;;;3.50;;
13816;SDS011;6979;52.116;5.286;2023-02-02T07:01:44;7.70;;;2.83;;
13816;SDS011;6979;52.116;5.286;2023-02-02T07:04:16;4.50;;;2.90;;
13816;SDS011;6979;52.116;5.286;2023-02-02T07:06:43;9.23;;;3.57;;
13816;SDS011;6979;52.116;5.286;2023-02-02T07:09:10;9.40;;;3.30;;
13816;SDS011;6979;52.116;5.286;2023-02-02T07:11:37;8.67;;;3.87;;
13816;SDS011;6979;52.116;5.286;2023-02-02T07:14:07;9.27;;;2.83;;
13816;SDS011;6979;52.116;5.286;2023-02-02T07:16:49;13.07;;;4.10;;
13816;SDS011;6979;52.116;5.286;2023-02-02T07:19:17;4.87;;;3.13;;
13816;SDS011;6979;52.116;5.286;2023-02-02T07:21:44;7.53;;;3.20;;
13816;SDS011;6979;52.116;5.286;2023-02-02T07:24:11;8.53;;;3.50;;
13816;SDS011;6979;52.116;5.286;2023-02-02T07:26:38;7.23;;;3.43;;
13816;SDS011;6979;52.116;5.286;2023-02-02T07:29:05;6.90;;;3.10;;
13816;SDS011;6979;52.116;5.286;2023-02-02T07:31:34;5.97;;;2.83;;
13816;SDS011;6979;52.116;5.286;2023-02-02T07:34:01;9.50;;;4.20;;
13816;SDS011;6979;52.116;5.286;2023-02-02T07:36:34;9.70;;;2.97;;
13816;SDS011;6979;52.116;5.286;2023-02-02T07:39:04;11.53;;;3.30;;
13816;SDS011;6979;52.116;5.286;2023-02-02T07:41:32;7.87;;;3.27;;
13816;SDS011;6979;52.116;5.286;2023-02-02T07:44:00;7.03;;;3.30;;
13816;SDS011;6979;52.116;5.286;2023-02-02T07:46:29;4.73;;;2.57;;
13816;SDS011;6979;52.116;5.286;2023-02-02T07:48:56;5.27;;;3.03;;
13816;SDS011;6979;52.116;5.286;2023-02-02T07:51:23;7.70;;;4.03;;
13816;SDS011;6979;52.116;5.286;2023-02-02T07:53:52;8.70;;;3.27;;
13816;SDS011;6979;52.116;5.286;2023-02-02T07:56:23;8.63;;;3.83;;
13816;SDS011;6979;52.116;5.286;2023-02-02T07:58:51;11.13;;;3.80;;
13816;SDS011;6979;52.116;5.286;2023-02-02T08:01:19;7.20;;;2.93;;
13816;SDS011;6979;52.116;5.286;2023-02-02T08:03:47;7.23;;;2.97;;
13816;SDS011;6979;52.116;5.286;2023-02-02T08:06:16;4.50;;;2.70;;
13816;SDS011;6979;52.116;5.286;2023-02-02T08:08:45;8.97;;;3.53;;
13816;SDS011;6979;52.116;5.286;2023-02-02T08:11:15;12.10;;;2.97;;
13816;SDS011;6979;52.116;5.286;2023-02-02T08:13:42;5.93;;;2.97;;
13816;SDS011;6979;52.116;5.286;2023-02-02T08:16:10;6.77;;;2.80;;
13816;SDS011;6979;52.116;5.286;2023-02-02T08:18:37;9.20;;;3.00;;
13816;SDS011;6979;52.116;5.286;2023-02-02T08:21:05;7.33;;;3.27;;
13816;SDS011;6979;52.116;5.286;2023-02-02T08:23:33;8.07;;;3.33;;
13816;SDS011;6979;52.116;5.286;2023-02-02T08:26:05;8.17;;;3.60;;
13816;SDS011;6979;52.116;5.286;2023-02-02T08:28:35;10.07;;;3.10;;
13816;SDS011;6979;52.116;5.286;2023-02-02T08:31:05;4.77;;;2.57;;
13816;SDS011;6979;52.116;5.286;2023-02-02T08:33:33;11.47;;;3.83;;
13816;SDS011;6979;52.116;5.286;2023-02-02T08:36:00;6.43;;;2.90;;
13816;SDS011;6979;52.116;5.286;2023-02-02T08:38:28;7.73;;;2.97;;
13816;SDS011;6979;52.116;5.286;2023-02-02T08:40:54;7.00;;;2.87;;
13816;SDS011;6979;52.116;5.286;2023-02-02T08:43:22;5.40;;;2.40;;
13816;SDS011;6979;52.116;5.286;2023-02-02T08:45:50;10.20;;;3.10;;
13816;SDS011;6979;52.116;5.286;2023-02-02T08:48:17;9.50;;;3.40;;
13816;SDS011;6979;52.116;5.286;2023-02-02T08:50:50;5.93;;;2.50;;
13816;SDS011;6979;52.116;5.286;2023-02-02T08:53:18;7.17;;;2.67;;
13816;SDS011;6979;52.116;5.286;2023-02-02T08:55:45;8.63;;;2.80;;
13816;SDS011;6979;52.116;5.286;2023-02-02T08:58:12;10.13;;;3.13;;
13816;SDS011;6979;52.116;5.286;2023-02-02T09:00:38;8.80;;;3.17;;
13816;SDS011;6979;52.116;5.286;2023-02-02T09:03:07;8.83;;;3.47;;
13816;SDS011;6979;52.116;5.286;2023-02-02T09:05:34;7.27;;;3.00;;
13816;SDS011;6979;52.116;5.286;2023-02-02T09:08:02;7.77;;;2.83;;
13816;SDS011;6979;52.116;5.286;2023-02-02T09:10:33;8.27;;;3.47;;
13816;SDS011;6979;52.116;5.286;2023-02-02T09:13:02;5.27;;;2.63;;
13816;SDS011;6979;52.116;5.286;2023-02-02T09:15:29;10.23;;;3.57;;
13816;SDS011;6979;52.116;5.286;2023-02-02T09:17:56;7.00;;;2.83;;
13816;SDS011;6979;52.116;5.286;2023-02-02T09:20:25;8.50;;;3.07;;
13816;SDS011;6979;52.116;5.286;2023-02-02T09:22:53;7.13;;;3.00;;
13816;SDS011;6979;52.116;5.286;2023-02-02T09:25:20;8.70;;;3.43;;
13816;SDS011;6979;52.116;5.286;2023-02-02T09:27:48;7.80;;;3.33;;
13816;SDS011;6979;52.116;5.286;2023-02-02T09:30:16;8.40;;;3.00;;
13816;SDS011;6979;52.116;5.286;2023-02-02T09:32:43;5.00;;;2.67;;
13816;SDS011;6979;52.116;5.286;2023-02-02T09:35:10;6.80;;;3.00;;
13816;SDS011;6979;52.116;5.286;2023-02-02T09:37:38;7.77;;;2.67;;
13816;SDS011;6979;52.116;5.286;2023-02-02T09:40:12;6.47;;;2.93;;
13816;SDS011;6979;52.116;5.286;2023-02-02T09:42:46;6.93;;;2.87;;
13816;SDS011;6979;52.116;5.286;2023-02-02T09:45:30;6.23;;;2.60;;
13816;SDS011;6979;52.116;5.286;2023-02-02T09:48:07;9.63;;;3.50;;
13816;SDS011;6979;52.116;5.286;2023-02-02T09:50:44;5.10;;;2.30;;
13816;SDS011;6979;52.116;5.286;2023-02-02T09:53:21;5.87;;;2.10;;
13816;SDS011;6979;52.116;5.286;2023-02-02T09:55:57;6.13;;;2.70;;
13816;SDS011;6979;52.116;5.286;2023-02-02T09:58:30;9.93;;;2.57;;
13816;SDS011;6979;52.116;5.286;2023-02-02T10:01:00;9.30;;;2.97;;
13816;SDS011;6979;52.116;5.286;2023-02-02T10:03:32;5.20;;;2.80;;
13816;SDS011;6979;52.116;5.286;2023-02-02T10:06:06;7.43;;;2.93;;
13816;SDS011;6979;52.116;5.286;2023-02-02T10:08:43;7.20;;;2.83;;
13816;SDS011;6979;52.116;5.286;2023-02-02T10:11:22;9.10;;;2.93;;
13816;SDS011;6979;52.116;5.286;2023-02-02T10:13:56;8.57;;;3.20;;
13816;SDS011;6979;52.116;5.286;2023-02-02T10:16:27;9.33;;;3.13;;
13816;SDS011;6979;52.116;5.286;2023-02-02T10:18:56;10.90;;;3.30;;
13816;SDS011;6979;52.116;5.286;2023-02-02T10:21:30;8.93;;;3.80;;
13816;SDS011;6979;52.116;5.286;2023-02-02T10:24:06;8.63;;;2.83;;
13816;SDS011;6979;52.116;5.286;2023-02-02T10:26:42;5.73;;;2.53;;
13816;SDS011;6979;52.116;5.286;2023-02-02T10:29:14;8.27;;;3.17;;
13816;SDS011;6979;52.116;5.286;2023-02-02T10:31:43;9.07;;;3.30;;
13816;SDS011;6979;52.116;5.286;2023-02-02T10:34:21;7.80;;;3.47;;
13816;SDS011;6979;52.116;5.286;2023-02-02T10:39:43;7.07;;;3.07;;
13816;SDS011;6979;52.116;5.286;2023-02-02T10:42:29;7.47;;;2.80;;
13816;SDS011;6979;52.116;5.286;2023-02-02T10:45:08;7.97;;;3.07;;
13816;SDS011;6979;52.116;5.286;2023-02-02T10:47:39;9.00;;;3.23;;
13816;SDS011;6979;52.116;5.286;2023-02-02T10:50:14;6.83;;;3.00;;
13816;SDS011;6979;52.116;5.286;2023-02-02T10:52:44;9.67;;;3.37;;
13816;SDS011;6979;52.116;5.286;2023-02-02T10:55:17;11.77;;;3.67;;
13816;SDS011;6979;52.116;5.286;2023-02-02T10:57:52;8.43;;;2.77;;
13816;SDS011;6979;52.116;5.286;2023-02-02T11:00:27;6.77;;;3.07;;
13816;SDS011;6979;52.116;5.286;2023-02-02T11:02:59;7.13;;;3.87;;
13816;SDS011;6979;52.116;5.286;2023-02-02T11:05:29;7.03;;;3.07;;
13816;SDS011;6979;52.116;5.286;2023-02-02T11:08:15;7.13;;;2.57;;
13816;SDS011;6979;52.116;5.286;2023-02-02T11:10:45;6.30;;;3.47;;
13816;SDS011;6979;52.116;5.286;2023-02-02T11:13:15;9.13;;;2.90;;
13816;SDS011;6979;52.116;5.286;2023-02-02T11:15:46;6.93;;;2.70;;
13816;SDS011;6979;52.116;5.286;2023-02-02T11:18:13;4.60;;;2.30;;
13816;SDS011;6979;52.116;5.286;2023-02-02T11:20:53;10.43;;;2.83;;
13816;SDS011;6979;52.116;5.286;2023-02-02T11:23:20;5.50;;;2.20;;
13816;SDS011;6979;52.116;5.286;2023-02-02T11:25:57;5.77;;;2.10;;
13816;SDS011;6979;52.116;5.286;2023-02-02T11:28:26;6.60;;;2.30;;
13816;SDS011;6979;52.116;5.286;2023-02-02T11:30:55;6.63;;;2.80;;
13816;SDS011;6979;52.116;5.286;2023-02-02T11:33:26;9.67;;;2.57;;
13816;SDS011;6979;52.116;5.286;2023-02-02T11:35:57;5.97;;;2.40;;
13816;SDS011;6979;52.116;5.286;2023-02-02T11:38:25;9.37;;;2.93;;
13816;SDS011;6979;52.116;5.286;2023-02-02T11:41:00;5.17;;;2.43;;
13816;SDS011;6979;52.116;5.286;2023-02-02T11:43:30;5.07;;;2.27;;
13816;SDS011;6979;52.116;5.286;2023-02-02T11:46:01;8.07;;;2.60;;
13816;SDS011;6979;52.116;5.286;2023-02-02T11:48:31;4.83;;;2.67;;
13816;SDS011;6979;52.116;5.286;2023-02-02T11:51:00;7.33;;;2.53;;
13816;SDS011;6979;52.116;5.286;2023-02-02T11:53:28;12.20;;;4.10;;
13816;SDS011;6979;52.116;5.286;2023-02-02T11:55:58;8.93;;;3.00;;
13816;SDS011;6979;52.116;5.286;2023-02-02T11:58:41;6.70;;;1.90;;
13816;SDS011;6979;52.116;5.286;2023-02-02T12:01:20;6.33;;;1.90;;
13816;SDS011;6979;52.116;5.286;2023-02-02T12:03:52;4.40;;;2.20;;
13816;SDS011;6979;52.116;5.286;2023-02-02T12:06:21;6.30;;;3.47;;
13816;SDS011;6979;52.116;5.286;2023-02-02T12:08:50;6.47;;;2.50;;
13816;SDS011;6979;52.116;5.286;2023-02-02T12:11:27;5.37;;;2.37;;
13816;SDS011;6979;52.116;5.286;2023-02-02T12:14:09;10.13;;;2.60;;
13816;SDS011;6979;52.116;5.286;2023-02-02T12:16:47;5.33;;;2.10;;
13816;SDS011;6979;52.116;5.286;2023-02-02T12:19:34;6.00;;;2.77;;
13816;SDS011;6979;52.116;5.286;2023-02-02T12:22:16;4.60;;;2.73;;
13816;SDS011;6979;52.116;5.286;2023-02-02T12:24:53;7.57;;;2.10;;
13816;SDS011;6979;52.116;5.286;2023-02-02T12:27:29;6.13;;;2.13;;
13816;SDS011;6979;52.116;5.286;2023-02-02T12:30:08;5.07;;;2.27;;
13816;SDS011;6979;52.116;5.286;2023-02-02T12:32:59;5.50;;;1.63;;
13816;SDS011;6979;52.116;5.286;2023-02-02T12:35:40;5.27;;;2.37;;
13816;SDS011;6979;52.116;5.286;2023-02-02T12:38:23;7.67;;;2.97;;
13816;SDS011;6979;52.116;5.286;2023-02-02T12:41:06;7.57;;;2.23;;
13816;SDS011;6979;52.116;5.286;2023-02-02T12:43:49;5.30;;;2.20;;
13816;SDS011;6979;52.116;5.286;2023-02-02T12:46:27;4.70;;;2.00;;
13816;SDS011;6979;52.116;5.286;2023-02-02T12:49:10;3.43;;;1.70;;
13816;SDS011;6979;52.116;5.286;2023-02-02T12:51:56;4.33;;;2.50;;
13816;SDS011;6979;52.116;5.286;2023-02-02T12:54:47;8.27;;;2.33;;
13816;SDS011;6979;52.116;5.286;2023-02-02T12:57:27;7.40;;;2.33;;
13816;SDS011;6979;52.116;5.286;2023-02-02T13:00:09;5.47;;;2.07;;
13816;SDS011;6979;52.116;5.286;2023-02-02T13:03:04;8.60;;;2.80;;
13816;SDS011;6979;52.116;5.286;2023-02-02T13:05:50;8.50;;;2.43;;
13816;SDS011;6979;52.116;5.286;2023-02-02T13:08:38;5.17;;;2.20;;
13816;SDS011;6979;52.116;5.286;2023-02-02T13:11:11;7.63;;;2.23;;
13816;SDS011;6979;52.116;5.286;2023-02-02T13:13:55;5.27;;;2.30;;
13816;SDS011;6979;52.116;5.286;2023-02-02T13:16:26;6.87;;;2.90;;
13816;SDS011;6979;52.116;5.286;2023-02-02T13:18:58;4.07;;;2.13;;
13816;SDS011;6979;52.116;5.286;2023-02-02T13:21:29;7.90;;;2.50;;
13816;SDS011;6979;52.116;5.286;2023-02-02T13:24:01;6.33;;;2.50;;
13816;SDS011;6979;52.116;5.286;2023-02-02T13:26:31;4.27;;;2.33;;
13816;SDS011;6979;52.116;5.286;2023-02-02T13:29:04;4.87;;;2.33;;
13816;SDS011;6979;52.116;5.286;2023-02-02T13:31:39;3.60;;;1.93;;
13816;SDS011;6979;52.116;5.286;2023-02-02T13:34:12;5.37;;;2.23;;
13816;SDS011;6979;52.116;5.286;2023-02-02T13:36:45;8.33;;;2.80;;
13816;SDS011;6979;52.116;5.286;2023-02-02T13:39:16;3.27;;;2.17;;
13816;SDS011;6979;52.116;5.286;2023-02-02T13:41:47;2.60;;;1.90;;
13816;SDS011;6979;52.116;5.286;2023-02-02T13:44:16;4.57;;;1.70;;
13816;SDS011;6979;52.116;5.286;2023-02-02T13:46:51;4.87;;;2.07;;
13816;SDS011;6979;52.116;5.286;2023-02-02T13:49:23;3.00;;;1.50;;
13816;SDS011;6979;52.116;5.286;2023-02-02T13:52:07;3.27;;;1.63;;
13816;SDS011;6979;52.116;5.286;2023-02-02T13:55:14;2.90;;;1.60;;
13816;SDS011;6979;52.116;5.286;2023-02-02T13:58:16;4.27;;;1.63;;
13816;SDS011;6979;52.116;5.286;2023-02-02T14:01:03;2.70;;;1.50;;
13816;SDS011;6979;52.116;5.286;2023-02-02T14:03:35;1.43;;;1.10;;
13816;SDS011;6979;52.116;5.286;2023-02-02T14:06:05;2.90;;;1.73;;
13816;SDS011;6979;52.116;5.286;2023-02-02T14:08:34;1.67;;;1.20;;
13816;SDS011;6979;52.116;5.286;2023-02-02T14:11:03;2.00;;;0.90;;
13816;SDS011;6979;52.116;5.286;2023-02-02T14:13:39;1.20;;;1.10;;
13816;SDS011;6979;52.116;5.286;2023-02-02T14:16:42;1.37;;;1.20;;
13816;SDS011;6979;52.116;5.286;2023-02-02T14:22:16;1.60;;;1.33;;
13816;SDS011;6979;52.116;5.286;2023-02-02T14:24:58;1.00;;;0.83;;
13816;SDS011;6979;52.116;5.286;2023-02-02T14:27:52;1.30;;;0.83;;
13816;SDS011;6979;52.116;5.286;2023-02-02T14:30:23;1.50;;;1.40;;
13816;SDS011;6979;52.116;5.286;2023-02-02T14:35:53;1.93;;;0.90;;
13816;SDS011;6979;52.116;5.286;2023-02-02T14:38:44;0.80;;;0.80;;
13816;SDS011;6979;52.116;5.286;2023-02-02T14:41:30;1.93;;;1.10;;
13816;SDS011;6979;52.116;5.286;2023-02-02T14:44:24;0.90;;;0.90;;
13816;SDS011;6979;52.116;5.286;2023-02-02T14:46:57;1.40;;;1.30;;
13816;SDS011;6979;52.116;5.286;2023-02-02T14:49:25;1.47;;;1.37;;
13816;SDS011;6979;52.116;5.286;2023-02-02T14:52:02;1.13;;;1.03;;
13816;SDS011;6979;52.116;5.286;2023-02-02T14:54:31;1.13;;;1.13;;
13816;SDS011;6979;52.116;5.286;2023-02-02T14:57:04;2.87;;;2.20;;
13816;SDS011;6979;52.116;5.286;2023-02-02T14:59:46;2.00;;;1.80;;
13816;SDS011;6979;52.116;5.286;2023-02-02T15:02:15;1.70;;;1.60;;
13816;SDS011;6979;52.116;5.286;2023-02-02T15:04:44;2.57;;;1.77;;
13816;SDS011;6979;52.116;5.286;2023-02-02T15:10:18;2.37;;;1.70;;
13816;SDS011;6979;52.116;5.286;2023-02-02T15:13:27;2.80;;;2.50;;
13816;SDS011;6979;52.116;5.286;2023-02-02T15:16:04;4.93;;;2.40;;
13816;SDS011;6979;52.116;5.286;2023-02-02T15:18:47;3.43;;;2.90;;
13816;SDS011;6979;52.116;5.286;2023-02-02T15:21:23;2.63;;;2.43;;
13816;SDS011;6979;52.116;5.286;2023-02-02T15:23:51;4.27;;;2.47;;
13816;SDS011;6979;52.116;5.286;2023-02-02T15:26:20;2.77;;;2.43;;
13816;SDS011;6979;52.116;5.286;2023-02-02T15:28:53;7.27;;;3.60;;
13816;SDS011;6979;52.116;5.286;2023-02-02T15:31:26;3.63;;;3.30;;
13816;SDS011;6979;52.116;5.286;2023-02-02T15:33:57;8.10;;;3.67;;
13816;SDS011;6979;52.116;5.286;2023-02-02T15:36:29;4.30;;;3.40;;
13816;SDS011;6979;52.116;5.286;2023-02-02T15:38:58;5.33;;;3.63;;
13816;SDS011;6979;52.116;5.286;2023-02-02T15:41:30;5.53;;;3.67;;
13816;SDS011;6979;52.116;5.286;2023-02-02T15:44:00;6.00;;;3.90;;